sensor_id;sensor_type;location;lat;lon;timestamp;P1;P2;P0
85148;PMS7003;75507;52.464;17.180;2024-02-21T00:00:31;19.50;16.50;11.00
85148;PMS7003;75507;52.464;17.180;2024-02-21T00:01:31;19.25;14.75;9.25
85148;PMS7003;75507;52.464;17.180;2024-02-21T00:02:31;24.75;14.75;10.00
85148;PMS7003;75507;52.464;17.180;2024-02-21T00:03:32;17.75;15.50;10.75
85148;PMS7003;75507;52.464;17.180;2024-02-21T00:04:32;25.67;20.33;10.00
85148;PMS7003;75507;52.464;17.180;2024-02-21T00:05:32;20.00;16.00;10.00
85148;PMS7003;75507;52.464;17.180;2024-02-21T00:06:33;23.00;13.75;9.00
85148;PMS7003;75507;52.464;17.180;2024-02-21T00:07:33;19.50;14.75;7.00
85148;PMS7003;75507;52.464;17.180;2024-02-21T00:08:33;26.00;17.00;10.00
85148;PMS7003;75507;52.464;17.180;2024-02-21T00:09:33;16.33;12.00;9.00
85148;PMS7003;75507;52.464;17.180;2024-02-21T00:10:34;25.50;16.50;8.25
85148;PMS7003;75507;52.464;17.180;2024-02-21T00:11:35;18.00;15.33;9.00
85148;PMS7003;75507;52.464;17.180;2024-02-21T00:12:35;16.00;15.00;8.50
85148;PMS7003;75507;52.464;17.180;2024-02-21T00:13:35;17.50;11.25;8.50
85148;PMS7003;75507;52.464;17.180;2024-02-21T00:14:36;15.00;13.00;8.25
85148;PMS7003;75507;52.464;17.180;2024-02-21T00:15:37;19.00;14.75;9.00
85148;PMS7003;75507;52.464;17.180;2024-02-21T00:16:37;17.80;15.80;10.00
85148;PMS7003;75507;52.464;17.180;2024-02-21T00:17:37;22.00;16.25;9.50
85148;PMS7003;75507;52.464;17.180;2024-02-21T00:18:38;24.75;16.75;10.00
85148;PMS7003;75507;52.464;17.180;2024-02-21T00:19:38;25.25;15.25;9.00
85148;PMS7003;75507;52.464;17.180;2024-02-21T00:20:38;21.67;16.67;9.67
85148;PMS7003;75507;52.464;17.180;2024-02-21T00:21:39;21.67;18.67;9.33
85148;PMS7003;75507;52.464;17.180;2024-02-21T00:22:39;17.50;15.00;8.00
85148;PMS7003;75507;52.464;17.180;2024-02-21T00:23:39;20.00;16.00;8.00
85148;PMS7003;75507;52.464;17.180;2024-02-21T00:24:39;20.75;14.75;7.25
85148;PMS7003;75507;52.464;17.180;2024-02-21T00:25:40;20.75;17.25;10.25
85148;PMS7003;75507;52.464;17.180;2024-02-21T00:26:40;23.25;14.25;8.25
85148;PMS7003;75507;52.464;17.180;2024-02-21T00:27:40;20.00;14.75;9.50
85148;PMS7003;75507;52.464;17.180;2024-02-21T00:28:41;16.00;14.75;10.00
85148;PMS7003;75507;52.464;17.180;2024-02-21T00:29:41;23.00;17.00;10.00
85148;PMS7003;75507;52.464;17.180;2024-02-21T00:30:41;19.00;13.50;10.00
85148;PMS7003;75507;52.464;17.180;2024-02-21T00:31:42;20.67;14.00;7.67
85148;PMS7003;75507;52.464;17.180;2024-02-21T00:32:42;20.25;13.75;8.75
85148;PMS7003;75507;52.464;17.180;2024-02-21T00:33:42;20.00;15.67;9.00
85148;PMS7003;75507;52.464;17.180;2024-02-21T00:34:43;18.00;14.00;9.00
85148;PMS7003;75507;52.464;17.180;2024-02-21T00:35:43;20.00;13.00;8.00
85148;PMS7003;75507;52.464;17.180;2024-02-21T00:36:44;18.25;14.75;9.25
85148;PMS7003;75507;52.464;17.180;2024-02-21T00:37:44;18.00;14.33;9.67
85148;PMS7003;75507;52.464;17.180;2024-02-21T00:38:44;23.50;14.00;9.00
85148;PMS7003;75507;52.464;17.180;2024-02-21T00:39:45;20.75;13.25;9.00
85148;PMS7003;75507;52.464;17.180;2024-02-21T00:40:45;17.50;14.50;9.00
85148;PMS7003;75507;52.464;17.180;2024-02-21T00:41:45;33.75;18.50;9.00
85148;PMS7003;75507;52.464;17.180;2024-02-21T00:42:46;22.75;19.75;11.00
85148;PMS7003;75507;52.464;17.180;2024-02-21T00:43:47;23.00;18.50;10.00
85148;PMS7003;75507;52.464;17.180;2024-02-21T00:44:48;22.25;16.00;10.75
85148;PMS7003;75507;52.464;17.180;2024-02-21T00:45:49;22.25;17.00;11.00
85148;PMS7003;75507;52.464;17.180;2024-02-21T00:46:50;29.00;20.40;11.00
85148;PMS7003;75507;52.464;17.180;2024-02-21T00:47:50;21.80;18.00;10.80
85148;PMS7003;75507;52.464;17.180;2024-02-21T00:48:51;27.50;18.50;11.25
85148;PMS7003;75507;52.464;17.180;2024-02-21T00:49:51;23.50;19.75;10.75
85148;PMS7003;75507;52.464;17.180;2024-02-21T00:50:51;21.25;16.00;10.00
85148;PMS7003;75507;52.464;17.180;2024-02-21T00:51:52;27.00;19.25;11.25
85148;PMS7003;75507;52.464;17.180;2024-02-21T00:52:52;19.75;16.75;11.00
85148;PMS7003;75507;52.464;17.180;2024-02-21T00:53:52;26.75;17.50;12.00
85148;PMS7003;75507;52.464;17.180;2024-02-21T00:54:53;27.00;18.00;10.33
85148;PMS7003;75507;52.464;17.180;2024-02-21T00:55:53;23.75;16.00;10.25
85148;PMS7003;75507;52.464;17.180;2024-02-21T00:56:54;19.00;18.00;11.00
85148;PMS7003;75507;52.464;17.180;2024-02-21T00:57:54;23.00;14.00;9.75
85148;PMS7003;75507;52.464;17.180;2024-02-21T00:58:54;24.50;18.75;10.50
85148;PMS7003;75507;52.464;17.180;2024-02-21T00:59:55;22.50;18.50;11.00
85148;PMS7003;75507;52.464;17.180;2024-02-21T01:00:55;24.67;16.33;9.67
85148;PMS7003;75507;52.464;17.180;2024-02-21T01:01:56;26.00;19.25;12.00
85148;PMS7003;75507;52.464;17.180;2024-02-21T01:02:56;27.00;20.00;11.00
85148;PMS7003;75507;52.464;17.180;2024-02-21T01:03:56;18.75;13.50;7.50
85148;PMS7003;75507;52.464;17.180;2024-02-21T01:04:57;23.25;21.00;13.00
85148;PMS7003;75507;52.464;17.180;2024-02-21T01:05:57;20.50;17.00;10.25
85148;PMS7003;75507;52.464;17.180;2024-02-21T01:06:58;16.00;15.00;10.00
85148;PMS7003;75507;52.464;17.180;2024-02-21T01:07:58;26.50;20.00;10.00
85148;PMS7003;75507;52.464;17.180;2024-02-21T01:08:58;25.00;17.50;10.25
85148;PMS7003;75507;52.464;17.180;2024-02-21T01:09:59;19.67;17.67;10.67
85148;PMS7003;75507;52.464;17.180;2024-02-21T01:10:59;23.00;17.67;10.00
85148;PMS7003;75507;52.464;17.180;2024-02-21T01:11:59;20.75;16.00;9.25
85148;PMS7003;75507;52.464;17.180;2024-02-21T01:13:00;21.25;15.00;10.75
85148;PMS7003;75507;52.464;17.180;2024-02-21T01:14:00;20.33;14.00;9.33
85148;PMS7003;75507;52.464;17.180;2024-02-21T01:15:00;19.00;14.33;9.00
85148;PMS7003;75507;52.464;17.180;2024-02-21T01:16:01;19.67;16.00;8.67
85148;PMS7003;75507;52.464;17.180;2024-02-21T01:17:01;17.00;12.75;9.75
85148;PMS7003;75507;52.464;17.180;2024-02-21T01:18:01;24.00;14.50;9.00
85148;PMS7003;75507;52.464;17.180;2024-02-21T01:19:02;19.00;12.00;7.60
85148;PMS7003;75507;52.464;17.180;2024-02-21T01:20:03;22.75;16.00;9.25
85148;PMS7003;75507;52.464;17.180;2024-02-21T01:21:05;22.25;16.25;10.00
85148;PMS7003;75507;52.464;17.180;2024-02-21T01:22:07;22.40;15.00;9.20
85148;PMS7003;75507;52.464;17.180;2024-02-21T01:23:07;26.00;16.00;10.00
85148;PMS7003;75507;52.464;17.180;2024-02-21T01:24:07;17.67;12.67;8.67
85148;PMS7003;75507;52.464;17.180;2024-02-21T01:25:08;17.25;14.25;8.25
85148;PMS7003;75507;52.464;17.180;2024-02-21T01:26:08;19.00;12.00;7.40
85148;PMS7003;75507;52.464;17.180;2024-02-21T01:27:08;19.50;17.00;10.00
85148;PMS7003;75507;52.464;17.180;2024-02-21T01:28:09;18.50;15.00;9.50
85148;PMS7003;75507;52.464;17.180;2024-02-21T01:29:09;26.67;19.33;10.00
85148;PMS7003;75507;52.464;17.180;2024-02-21T01:30:10;21.00;15.00;10.00
85148;PMS7003;75507;52.464;17.180;2024-02-21T01:31:11;18.50;13.00;9.00
85148;PMS7003;75507;52.464;17.180;2024-02-21T01:32:12;22.00;17.00;10.00
85148;PMS7003;75507;52.464;17.180;2024-02-21T01:33:13;29.33;17.67;9.00
85148;PMS7003;75507;52.464;17.180;2024-02-21T01:34:13;16.75;14.75;9.00
85148;PMS7003;75507;52.464;17.180;2024-02-21T01:35:13;18.33;16.33;11.00
85148;PMS7003;75507;52.464;17.180;2024-02-21T01:36:14;20.50;15.25;8.25
85148;PMS7003;75507;52.464;17.180;2024-02-21T01:37:14;25.75;17.00;10.25
85148;PMS7003;75507;52.464;17.180;2024-02-21T01:38:14;22.00;14.00;8.67
85148;PMS7003;75507;52.464;17.180;2024-02-21T01:39:15;16.33;14.00;8.33
85148;PMS7003;75507;52.464;17.180;2024-02-21T01:40:15;14.25;13.00;9.00
85148;PMS7003;75507;52.464;17.180;2024-02-21T01:41:15;20.80;14.60;9.00
85148;PMS7003;75507;52.464;17.180;2024-02-21T01:42:16;20.75;15.75;10.00
85148;PMS7003;75507;52.464;17.180;2024-02-21T01:43:17;18.50;16.75;9.25
85148;PMS7003;75507;52.464;17.180;2024-02-21T01:44:19;17.20;15.20;9.40
85148;PMS7003;75507;52.464;17.180;2024-02-21T01:45:19;23.00;20.25;13.25
85148;PMS7003;75507;52.464;17.180;2024-02-21T01:46:20;27.00;21.25;14.25
85148;PMS7003;75507;52.464;17.180;2024-02-21T01:47:20;22.75;20.75;15.00
85148;PMS7003;75507;52.464;17.180;2024-02-21T01:48:23;29.25;26.00;15.00
85148;PMS7003;75507;52.464;17.180;2024-02-21T01:49:24;33.50;24.75;14.00
85148;PMS7003;75507;52.464;17.180;2024-02-21T01:50:25;26.75;23.50;14.50
85148;PMS7003;75507;52.464;17.180;2024-02-21T01:51:25;25.75;24.00;13.50
85148;PMS7003;75507;52.464;17.180;2024-02-21T01:52:26;32.33;26.00;12.67
85148;PMS7003;75507;52.464;17.180;2024-02-21T01:53:30;22.25;19.50;12.75
85148;PMS7003;75507;52.464;17.180;2024-02-21T01:54:34;24.25;16.25;11.25
85148;PMS7003;75507;52.464;17.180;2024-02-21T01:55:34;20.50;16.25;10.75
85148;PMS7003;75507;52.464;17.180;2024-02-21T01:56:35;24.50;17.00;11.25
85148;PMS7003;75507;52.464;17.180;2024-02-21T01:57:35;20.00;16.75;12.50
85148;PMS7003;75507;52.464;17.180;2024-02-21T01:58:36;22.60;18.60;13.00
85148;PMS7003;75507;52.464;17.180;2024-02-21T01:59:37;22.25;15.25;10.00
85148;PMS7003;75507;52.464;17.180;2024-02-21T02:00:38;24.00;19.25;12.50
85148;PMS7003;75507;52.464;17.180;2024-02-21T02:01:41;25.00;20.25;11.75
85148;PMS7003;75507;52.464;17.180;2024-02-21T02:02:41;26.00;18.75;10.25
85148;PMS7003;75507;52.464;17.180;2024-02-21T02:03:42;20.80;15.80;10.40
85148;PMS7003;75507;52.464;17.180;2024-02-21T02:04:45;22.00;17.60;12.00
85148;PMS7003;75507;52.464;17.180;2024-02-21T02:05:46;25.75;21.00;10.00
85148;PMS7003;75507;52.464;17.180;2024-02-21T02:06:48;22.00;17.00;10.75
85148;PMS7003;75507;52.464;17.180;2024-02-21T02:07:48;21.25;16.75;11.50
85148;PMS7003;75507;52.464;17.180;2024-02-21T02:08:48;21.00;17.00;11.33
85148;PMS7003;75507;52.464;17.180;2024-02-21T02:09:49;24.67;19.67;12.00
85148;PMS7003;75507;52.464;17.180;2024-02-21T02:10:49;19.50;16.50;10.00
85148;PMS7003;75507;52.464;17.180;2024-02-21T02:11:50;28.25;20.25;13.00
85148;PMS7003;75507;52.464;17.180;2024-02-21T02:12:50;23.75;18.50;10.25
85148;PMS7003;75507;52.464;17.180;2024-02-21T02:13:51;25.00;20.00;12.75
85148;PMS7003;75507;52.464;17.180;2024-02-21T02:14:58;27.25;19.75;10.25
85148;PMS7003;75507;52.464;17.180;2024-02-21T02:16:04;23.40;18.00;11.00
85148;PMS7003;75507;52.464;17.180;2024-02-21T02:17:05;27.25;18.25;9.75
85148;PMS7003;75507;52.464;17.180;2024-02-21T02:18:05;19.25;16.25;11.00
85148;PMS7003;75507;52.464;17.180;2024-02-21T02:19:06;27.75;14.25;10.25
85148;PMS7003;75507;52.464;17.180;2024-02-21T02:20:06;23.67;16.33;12.00
85148;PMS7003;75507;52.464;17.180;2024-02-21T02:21:09;17.25;14.25;10.00
85148;PMS7003;75507;52.464;17.180;2024-02-21T02:22:14;20.00;16.25;11.00
85148;PMS7003;75507;52.464;17.180;2024-02-21T02:23:21;20.25;17.75;10.00
85148;PMS7003;75507;52.464;17.180;2024-02-21T02:24:34;22.60;14.60;10.00
85148;PMS7003;75507;52.464;17.180;2024-02-21T02:25:34;21.75;19.00;12.00
85148;PMS7003;75507;52.464;17.180;2024-02-21T02:26:35;23.00;18.00;10.75
85148;PMS7003;75507;52.464;17.180;2024-02-21T02:27:42;25.33;19.00;11.33
85148;PMS7003;75507;52.464;17.180;2024-02-21T02:28:44;22.80;19.20;11.80
85148;PMS7003;75507;52.464;17.180;2024-02-21T02:29:44;24.00;17.00;10.67
85148;PMS7003;75507;52.464;17.180;2024-02-21T02:30:44;19.67;17.33;10.00
85148;PMS7003;75507;52.464;17.180;2024-02-21T02:31:45;21.25;19.50;11.50
85148;PMS7003;75507;52.464;17.180;2024-02-21T02:32:45;25.50;15.00;9.25
85148;PMS7003;75507;52.464;17.180;2024-02-21T02:33:46;17.80;16.40;10.00
85148;PMS7003;75507;52.464;17.180;2024-02-21T02:34:48;23.00;20.75;11.00
85148;PMS7003;75507;52.464;17.180;2024-02-21T02:35:48;20.00;14.25;10.00
85148;PMS7003;75507;52.464;17.180;2024-02-21T02:36:48;22.50;18.00;10.00
85148;PMS7003;75507;52.464;17.180;2024-02-21T02:37:49;23.75;15.00;10.25
85148;PMS7003;75507;52.464;17.180;2024-02-21T02:38:50;26.40;18.40;11.40
85148;PMS7003;75507;52.464;17.180;2024-02-21T02:39:50;24.50;16.25;10.50
85148;PMS7003;75507;52.464;17.180;2024-02-21T02:40:50;26.25;19.25;11.00
85148;PMS7003;75507;52.464;17.180;2024-02-21T02:41:51;25.75;20.00;12.00
85148;PMS7003;75507;52.464;17.180;2024-02-21T02:42:51;17.50;15.00;9.50
85148;PMS7003;75507;52.464;17.180;2024-02-21T02:43:51;23.50;17.00;10.75
85148;PMS7003;75507;52.464;17.180;2024-02-21T02:44:51;25.00;17.00;9.00
85148;PMS7003;75507;52.464;17.180;2024-02-21T02:45:52;19.50;17.75;11.25
85148;PMS7003;75507;52.464;17.180;2024-02-21T02:46:52;26.00;18.00;11.00
85148;PMS7003;75507;52.464;17.180;2024-02-21T02:47:53;29.00;17.33;9.33
85148;PMS7003;75507;52.464;17.180;2024-02-21T02:48:56;26.75;19.00;11.00
85148;PMS7003;75507;52.464;17.180;2024-02-21T02:49:57;21.00;19.00;10.67
85148;PMS7003;75507;52.464;17.180;2024-02-21T02:50:57;20.50;15.50;10.75
85148;PMS7003;75507;52.464;17.180;2024-02-21T02:51:57;22.00;20.00;11.75
85148;PMS7003;75507;52.464;17.180;2024-02-21T02:52:58;25.75;21.50;11.00
85148;PMS7003;75507;52.464;17.180;2024-02-21T02:53:58;27.25;19.25;11.00
85148;PMS7003;75507;52.464;17.180;2024-02-21T02:54:58;23.00;19.67;11.00
85148;PMS7003;75507;52.464;17.180;2024-02-21T02:55:59;25.50;17.75;11.25
85148;PMS7003;75507;52.464;17.180;2024-02-21T02:56:59;27.75;20.25;12.00
85148;PMS7003;75507;52.464;17.180;2024-02-21T02:57:59;29.67;21.67;13.67
85148;PMS7003;75507;52.464;17.180;2024-02-21T02:59:00;23.00;17.75;11.25
85148;PMS7003;75507;52.464;17.180;2024-02-21T03:00:00;20.00;16.00;10.00
85148;PMS7003;75507;52.464;17.180;2024-02-21T03:01:01;23.75;16.25;11.75
85148;PMS7003;75507;52.464;17.180;2024-02-21T03:02:02;18.25;17.75;9.75
85148;PMS7003;75507;52.464;17.180;2024-02-21T03:03:02;26.25;18.00;13.00
85148;PMS7003;75507;52.464;17.180;2024-02-21T03:04:03;27.50;19.75;13.00
85148;PMS7003;75507;52.464;17.180;2024-02-21T03:05:11;26.00;18.00;11.50
85148;PMS7003;75507;52.464;17.180;2024-02-21T03:06:13;17.25;16.50;10.50
85148;PMS7003;75507;52.464;17.180;2024-02-21T03:07:15;20.50;17.00;11.25
85148;PMS7003;75507;52.464;17.180;2024-02-21T03:08:15;24.00;18.00;11.25
85148;PMS7003;75507;52.464;17.180;2024-02-21T03:09:16;25.25;20.00;12.25
85148;PMS7003;75507;52.464;17.180;2024-02-21T03:10:17;24.60;17.20;11.60
85148;PMS7003;75507;52.464;17.180;2024-02-21T03:11:17;22.75;17.00;11.00
85148;PMS7003;75507;52.464;17.180;2024-02-21T03:12:18;27.00;19.00;12.00
85148;PMS7003;75507;52.464;17.180;2024-02-21T03:13:24;25.60;18.80;10.60
85148;PMS7003;75507;52.464;17.180;2024-02-21T03:14:24;26.00;19.00;12.00
85148;PMS7003;75507;52.464;17.180;2024-02-21T03:15:25;21.25;18.75;11.75
85148;PMS7003;75507;52.464;17.180;2024-02-21T03:16:25;30.00;21.00;12.50
85148;PMS7003;75507;52.464;17.180;2024-02-21T03:17:25;22.75;17.50;11.75
85148;PMS7003;75507;52.464;17.180;2024-02-21T03:18:29;22.40;20.20;12.40
85148;PMS7003;75507;52.464;17.180;2024-02-21T03:19:29;26.50;20.25;11.00
85148;PMS7003;75507;52.464;17.180;2024-02-21T03:20:29;28.75;21.75;12.00
85148;PMS7003;75507;52.464;17.180;2024-02-21T03:21:30;23.33;21.00;12.33
85148;PMS7003;75507;52.464;17.180;2024-02-21T03:22:31;25.33;21.00;11.33
85148;PMS7003;75507;52.464;17.180;2024-02-21T03:23:32;30.75;19.00;10.50
85148;PMS7003;75507;52.464;17.180;2024-02-21T03:24:32;26.75;19.00;11.25
85148;PMS7003;75507;52.464;17.180;2024-02-21T03:25:33;26.50;21.00;13.00
85148;PMS7003;75507;52.464;17.180;2024-02-21T03:26:33;25.67;21.00;13.33
85148;PMS7003;75507;52.464;17.180;2024-02-21T03:27:33;25.50;22.00;14.00
85148;PMS7003;75507;52.464;17.180;2024-02-21T03:28:34;30.67;23.33;16.00
85148;PMS7003;75507;52.464;17.180;2024-02-21T03:29:34;26.00;20.25;12.00
85148;PMS7003;75507;52.464;17.180;2024-02-21T03:30:34;27.75;23.50;13.75
85148;PMS7003;75507;52.464;17.180;2024-02-21T03:31:35;25.00;21.75;14.00
85148;PMS7003;75507;52.464;17.180;2024-02-21T03:32:35;26.75;21.25;12.50
85148;PMS7003;75507;52.464;17.180;2024-02-21T03:33:36;27.00;23.67;15.67
85148;PMS7003;75507;52.464;17.180;2024-02-21T03:34:36;26.00;20.25;12.00
85148;PMS7003;75507;52.464;17.180;2024-02-21T03:35:36;27.75;22.00;13.25
85148;PMS7003;75507;52.464;17.180;2024-02-21T03:36:37;23.00;19.67;12.67
85148;PMS7003;75507;52.464;17.180;2024-02-21T03:37:37;25.25;21.50;14.50
85148;PMS7003;75507;52.464;17.180;2024-02-21T03:38:37;31.00;24.33;12.00
85148;PMS7003;75507;52.464;17.180;2024-02-21T03:39:38;32.33;24.00;14.00
85148;PMS7003;75507;52.464;17.180;2024-02-21T03:40:38;28.00;18.75;12.00
85148;PMS7003;75507;52.464;17.180;2024-02-21T03:41:38;24.50;20.50;12.00
85148;PMS7003;75507;52.464;17.180;2024-02-21T03:42:39;26.67;22.67;13.33
85148;PMS7003;75507;52.464;17.180;2024-02-21T03:43:39;27.50;23.75;13.50
85148;PMS7003;75507;52.464;17.180;2024-02-21T03:44:39;22.50;19.50;12.50
85148;PMS7003;75507;52.464;17.180;2024-02-21T03:45:40;27.50;17.25;11.75
85148;PMS7003;75507;52.464;17.180;2024-02-21T03:46:40;23.00;21.50;12.00
85148;PMS7003;75507;52.464;17.180;2024-02-21T03:47:41;20.20;18.20;13.00
85148;PMS7003;75507;52.464;17.180;2024-02-21T03:48:41;27.67;23.00;13.33
85148;PMS7003;75507;52.464;17.180;2024-02-21T03:49:41;30.33;23.00;13.00
85148;PMS7003;75507;52.464;17.180;2024-02-21T03:50:42;24.25;20.50;11.75
85148;PMS7003;75507;52.464;17.180;2024-02-21T03:51:43;24.50;21.75;14.00
85148;PMS7003;75507;52.464;17.180;2024-02-21T03:52:43;22.33;19.33;12.33
85148;PMS7003;75507;52.464;17.180;2024-02-21T03:53:44;23.00;20.00;13.00
85148;PMS7003;75507;52.464;17.180;2024-02-21T03:54:44;31.00;24.33;13.00
85148;PMS7003;75507;52.464;17.180;2024-02-21T03:55:44;25.75;22.00;14.00
85148;PMS7003;75507;52.464;17.180;2024-02-21T03:56:45;22.75;18.75;12.00
85148;PMS7003;75507;52.464;17.180;2024-02-21T03:57:47;24.40;19.20;12.80
85148;PMS7003;75507;52.464;17.180;2024-02-21T03:58:47;30.50;21.25;12.75
85148;PMS7003;75507;52.464;17.180;2024-02-21T03:59:51;26.75;20.75;13.00
85148;PMS7003;75507;52.464;17.180;2024-02-21T04:00:52;21.25;17.75;14.00
85148;PMS7003;75507;52.464;17.180;2024-02-21T04:01:52;33.50;25.50;15.25
85148;PMS7003;75507;52.464;17.180;2024-02-21T04:02:53;43.20;34.40;21.00
85148;PMS7003;75507;52.464;17.180;2024-02-21T04:03:53;36.50;32.75;20.00
85148;PMS7003;75507;52.464;17.180;2024-02-21T04:04:53;45.00;29.67;18.00
85148;PMS7003;75507;52.464;17.180;2024-02-21T04:05:54;29.50;25.00;16.00
85148;PMS7003;75507;52.464;17.180;2024-02-21T04:06:54;35.75;30.00;17.00
85148;PMS7003;75507;52.464;17.180;2024-02-21T04:07:54;35.50;29.25;18.25
85148;PMS7003;75507;52.464;17.180;2024-02-21T04:08:55;31.25;24.75;16.00
85148;PMS7003;75507;52.464;17.180;2024-02-21T04:09:56;44.40;30.00;20.00
85148;PMS7003;75507;52.464;17.180;2024-02-21T04:10:56;26.67;21.67;13.00
85148;PMS7003;75507;52.464;17.180;2024-02-21T04:11:57;23.00;17.00;11.75
85148;PMS7003;75507;52.464;17.180;2024-02-21T04:12:57;27.50;19.25;11.75
85148;PMS7003;75507;52.464;17.180;2024-02-21T04:13:57;24.25;21.00;11.75
85148;PMS7003;75507;52.464;17.180;2024-02-21T04:14:57;27.50;20.75;12.75
85148;PMS7003;75507;52.464;17.180;2024-02-21T04:15:58;23.00;17.50;11.75
85148;PMS7003;75507;52.464;17.180;2024-02-21T04:16:58;24.00;17.75;10.25
85148;PMS7003;75507;52.464;17.180;2024-02-21T04:17:58;22.33;19.33;11.00
85148;PMS7003;75507;52.464;17.180;2024-02-21T04:18:59;18.75;16.00;11.00
85148;PMS7003;75507;52.464;17.180;2024-02-21T04:20:03;22.75;17.00;11.00
85148;PMS7003;75507;52.464;17.180;2024-02-21T04:21:05;21.40;18.60;10.00
85148;PMS7003;75507;52.464;17.180;2024-02-21T04:22:05;29.00;21.25;12.50
85148;PMS7003;75507;52.464;17.180;2024-02-21T04:23:06;24.67;16.67;10.67
85148;PMS7003;75507;52.464;17.180;2024-02-21T04:24:06;25.75;20.25;11.75
85148;PMS7003;75507;52.464;17.180;2024-02-21T04:25:06;22.75;19.75;13.00
85148;PMS7003;75507;52.464;17.180;2024-02-21T04:26:07;26.75;17.75;11.00
85148;PMS7003;75507;52.464;17.180;2024-02-21T04:27:07;23.00;17.50;11.00
85148;PMS7003;75507;52.464;17.180;2024-02-21T04:28:08;18.67;17.00;11.00
85148;PMS7003;75507;52.464;17.180;2024-02-21T04:29:08;22.00;16.33;10.67
85148;PMS7003;75507;52.464;17.180;2024-02-21T04:30:09;25.00;20.50;10.50
85148;PMS7003;75507;52.464;17.180;2024-02-21T04:31:09;24.20;18.60;11.40
85148;PMS7003;75507;52.464;17.180;2024-02-21T04:32:09;23.25;15.75;10.25
85148;PMS7003;75507;52.464;17.180;2024-02-21T04:33:10;18.75;15.75;9.00
85148;PMS7003;75507;52.464;17.180;2024-02-21T04:34:10;20.00;14.00;9.00
85148;PMS7003;75507;52.464;17.180;2024-02-21T04:35:11;27.75;18.75;12.00
85148;PMS7003;75507;52.464;17.180;2024-02-21T04:36:11;15.33;15.33;10.00
85148;PMS7003;75507;52.464;17.180;2024-02-21T04:37:11;25.33;17.00;10.00
85148;PMS7003;75507;52.464;17.180;2024-02-21T04:38:12;18.00;15.75;10.25
85148;PMS7003;75507;52.464;17.180;2024-02-21T04:39:12;24.50;16.50;10.25
85148;PMS7003;75507;52.464;17.180;2024-02-21T04:40:12;20.00;13.50;8.00
85148;PMS7003;75507;52.464;17.180;2024-02-21T04:41:14;21.50;18.00;10.50
85148;PMS7003;75507;52.464;17.180;2024-02-21T04:42:14;19.75;16.25;10.00
85148;PMS7003;75507;52.464;17.180;2024-02-21T04:43:15;21.25;16.75;10.00
85148;PMS7003;75507;52.464;17.180;2024-02-21T04:44:15;24.75;15.00;10.00
85148;PMS7003;75507;52.464;17.180;2024-02-21T04:45:16;18.75;16.75;11.50
85148;PMS7003;75507;52.464;17.180;2024-02-21T04:46:16;20.75;15.25;9.25
85148;PMS7003;75507;52.464;17.180;2024-02-21T04:47:16;23.50;16.75;9.50
85148;PMS7003;75507;52.464;17.180;2024-02-21T04:48:17;25.50;22.00;11.00
85148;PMS7003;75507;52.464;17.180;2024-02-21T04:49:17;21.75;16.00;10.25
85148;PMS7003;75507;52.464;17.180;2024-02-21T04:50:18;29.00;21.00;11.25
85148;PMS7003;75507;52.464;17.180;2024-02-21T04:51:18;22.50;17.75;12.25
85148;PMS7003;75507;52.464;17.180;2024-02-21T04:52:18;20.25;15.00;9.00
85148;PMS7003;75507;52.464;17.180;2024-02-21T04:53:18;19.00;15.67;9.00
85148;PMS7003;75507;52.464;17.180;2024-02-21T04:54:19;20.00;16.50;11.00
85148;PMS7003;75507;52.464;17.180;2024-02-21T04:55:19;21.33;15.00;10.00
85148;PMS7003;75507;52.464;17.180;2024-02-21T04:56:19;21.33;17.67;11.00
85148;PMS7003;75507;52.464;17.180;2024-02-21T04:57:20;21.33;17.00;12.00
85148;PMS7003;75507;52.464;17.180;2024-02-21T04:58:20;20.67;19.00;12.00
85148;PMS7003;75507;52.464;17.180;2024-02-21T04:59:20;25.67;15.67;10.00
85148;PMS7003;75507;52.464;17.180;2024-02-21T05:00:21;27.00;18.75;12.25
85148;PMS7003;75507;52.464;17.180;2024-02-21T05:01:21;22.75;15.00;10.75
85148;PMS7003;75507;52.464;17.180;2024-02-21T05:02:21;15.75;14.75;10.00
85148;PMS7003;75507;52.464;17.180;2024-02-21T05:03:24;21.40;17.00;11.60
85148;PMS7003;75507;52.464;17.180;2024-02-21T05:04:24;23.00;21.00;12.00
85148;PMS7003;75507;52.464;17.180;2024-02-21T05:05:24;20.50;18.00;11.00
85148;PMS7003;75507;52.464;17.180;2024-02-21T05:06:25;21.00;16.50;10.00
85148;PMS7003;75507;52.464;17.180;2024-02-21T05:07:25;16.25;16.25;9.75
85148;PMS7003;75507;52.464;17.180;2024-02-21T05:08:25;22.25;18.25;11.00
85148;PMS7003;75507;52.464;17.180;2024-02-21T05:09:26;20.33;17.67;11.00
85148;PMS7003;75507;52.464;17.180;2024-02-21T05:10:26;27.25;20.25;12.00
85148;PMS7003;75507;52.464;17.180;2024-02-21T05:11:26;30.33;20.33;13.00
85148;PMS7003;75507;52.464;17.180;2024-02-21T05:12:27;22.75;16.00;11.25
85148;PMS7003;75507;52.464;17.180;2024-02-21T05:13:27;20.25;18.25;13.00
85148;PMS7003;75507;52.464;17.180;2024-02-21T05:14:28;23.50;19.50;12.50
85148;PMS7003;75507;52.464;17.180;2024-02-21T05:15:28;21.00;20.00;13.00
85148;PMS7003;75507;52.464;17.180;2024-02-21T05:16:28;23.00;18.00;12.75
85148;PMS7003;75507;52.464;17.180;2024-02-21T05:17:29;27.50;17.25;12.75
85148;PMS7003;75507;52.464;17.180;2024-02-21T05:18:29;23.50;16.50;10.00
85148;PMS7003;75507;52.464;17.180;2024-02-21T05:19:29;23.50;20.25;11.50
85148;PMS7003;75507;52.464;17.180;2024-02-21T05:20:30;28.25;19.00;13.00
85148;PMS7003;75507;52.464;17.180;2024-02-21T05:21:30;20.00;16.25;11.25
85148;PMS7003;75507;52.464;17.180;2024-02-21T05:22:30;19.33;18.00;13.00
85148;PMS7003;75507;52.464;17.180;2024-02-21T05:23:31;23.25;16.50;12.00
85148;PMS7003;75507;52.464;17.180;2024-02-21T05:24:31;24.00;20.67;11.67
85148;PMS7003;75507;52.464;17.180;2024-02-21T05:25:31;23.67;20.00;13.00
85148;PMS7003;75507;52.464;17.180;2024-02-21T05:26:32;17.25;16.00;10.75
85148;PMS7003;75507;52.464;17.180;2024-02-21T05:27:32;24.00;17.75;11.75
85148;PMS7003;75507;52.464;17.180;2024-02-21T05:28:32;20.00;17.00;11.67
85148;PMS7003;75507;52.464;17.180;2024-02-21T05:29:33;27.33;21.00;12.00
85148;PMS7003;75507;52.464;17.180;2024-02-21T05:30:34;25.40;18.60;11.80
85148;PMS7003;75507;52.464;17.180;2024-02-21T05:32:52;18.25;15.00;10.50
85148;PMS7003;75507;52.464;17.180;2024-02-21T05:33:53;24.25;19.75;14.25
85148;PMS7003;75507;52.464;17.180;2024-02-21T05:34:53;27.67;24.00;15.00
85148;PMS7003;75507;52.464;17.180;2024-02-21T05:35:53;26.25;23.75;12.00
85148;PMS7003;75507;52.464;17.180;2024-02-21T05:36:54;23.33;22.00;11.67
85148;PMS7003;75507;52.464;17.180;2024-02-21T05:37:54;23.50;19.00;13.00